createdAt,value
2019-04-22T00:01:56.944Z,101612.19
2019-04-22T00:04:55.114Z,101606.59
2019-04-22T00:08:04.659Z,101609.08
2019-04-22T00:10:52.093Z,101604.13
2019-04-22T00:13:29.185Z,101603.98
2019-04-22T00:15:51.135Z,101598.33
2019-04-22T00:18:52.989Z,101602.25
2019-04-22T00:21:04.756Z,101595.01
2019-04-22T00:23:39.221Z,101590.45
2019-04-22T00:26:16.388Z,101585.29
2019-04-22T00:28:49.980Z,101586.41
2019-04-22T00:31:51.325Z,101583.09
2019-04-22T00:34:16.401Z,101576.53
2019-04-22T00:36:57.391Z,101578.58
2019-04-22T00:39:35.837Z,101580.34
2019-04-22T00:42:13.034Z,101575.98
2019-04-22T00:44:45.109Z,101577.22
2019-04-22T00:47:32.396Z,101574.02
2019-04-22T00:52:49.247Z,101570.73
2019-04-22T00:55:28.775Z,101564.63
2019-04-22T00:58:05.265Z,101565.86
2019-04-22T01:00:45.484Z,101564.30
2019-04-22T01:03:37.025Z,101564.55
2019-04-22T01:06:14.838Z,101564.23
2019-04-22T01:11:33.226Z,101563.50
2019-04-22T01:14:06.858Z,101565.65
2019-04-22T01:16:48.872Z,101564.12
2019-04-22T01:19:23.567Z,101559.89
2019-04-22T01:22:13.313Z,101558.66
2019-04-22T01:24:56.177Z,101558.44
2019-04-22T01:27:44.871Z,101553.98
2019-04-22T01:30:17.223Z,101561.27
2019-04-22T01:32:52.899Z,101555.31
2019-04-22T01:35:45.626Z,101552.70
2019-04-22T01:38:23.367Z,101558.78
2019-04-22T01:41:16.470Z,101554.12
2019-04-22T01:43:53.759Z,101553.20
2019-04-22T01:46:31.552Z,101554.63
2019-04-22T01:49:19.144Z,101546.81
2019-04-22T01:54:41.838Z,101541.81
2019-04-22T01:57:03.285Z,101548.59
2019-04-22T01:59:35.599Z,101543.32
2019-04-22T02:02:19.088Z,101548.27
2019-04-22T02:10:28.113Z,101537.64
2019-04-22T02:13:04.494Z,101537.56
2019-04-22T02:15:31.659Z,101541.16
2019-04-22T02:18:17.986Z,101543.72
2019-04-22T02:20:48.798Z,101536.17
2019-04-22T02:26:32.911Z,101543.57
2019-04-22T02:29:03.664Z,101542.37
2019-04-22T02:31:45.399Z,101542.14
2019-04-22T02:34:40.264Z,101534.75
2019-04-22T02:39:42.423Z,101530.89
2019-04-22T02:42:14.044Z,101524.58
2019-04-22T02:44:57.958Z,101525.69
2019-04-22T02:47:51.990Z,101523.39
2019-04-22T02:50:28.620Z,101525.05
2019-04-22T02:53:30.017Z,101511.41
2019-04-22T02:56:05.547Z,101515.28
2019-04-22T02:59:00.106Z,101515.92
2019-04-22T03:09:20.671Z,101493.55
2019-04-22T03:12:14.349Z,101495.82
2019-04-22T03:14:38.259Z,101491.19
2019-04-22T03:17:17.533Z,101494.80
2019-04-22T03:25:28.763Z,101488.63
2019-04-22T03:27:30.116Z,101492.21
2019-04-22T03:33:11.198Z,101489.33
2019-04-22T03:35:49.646Z,101488.98
2019-04-22T03:38:35.007Z,101484.01
2019-04-22T03:41:13.452Z,101474.95
2019-04-22T03:43:56.428Z,101479.38
2019-04-22T03:46:21.479Z,101472.97
2019-04-22T03:49:17.670Z,101473.53
2019-04-22T03:54:40.025Z,101475.83
2019-04-22T03:59:56.923Z,101470.53
2019-04-22T04:04:58.992Z,101470.97
2019-04-22T04:10:27.836Z,101472.10
2019-04-22T04:15:28.544Z,101472.22
2019-04-22T04:17:54.983Z,101465.41
2019-04-22T04:20:56.240Z,101465.93
2019-04-22T04:28:56.771Z,101465.41
2019-04-22T04:31:25.159Z,101461.09
2019-04-22T04:36:28.781Z,101466.34
2019-04-22T04:39:15.092Z,101460.28
2019-04-22T04:41:52.074Z,101467.30
2019-04-22T04:44:34.769Z,101464.84
2019-04-22T04:52:57.703Z,101457.14
2019-04-22T04:55:18.075Z,101463.78
2019-04-22T04:58:09.597Z,101463.81
2019-04-22T05:00:57.174Z,101464.02
2019-04-22T05:03:45.021Z,101459.80
2019-04-22T05:06:05.556Z,101460.34
2019-04-22T05:09:10.023Z,101464.08
2019-04-22T05:11:16.286Z,101460.48
2019-04-22T05:13:59.177Z,101459.94
2019-04-22T05:19:15.462Z,101465.70
2019-04-22T05:21:38.509Z,101458.38
2019-04-22T05:24:24.291Z,101466.73
2019-04-22T05:26:57.021Z,101464.00
2019-04-22T05:29:36.139Z,101457.36
2019-04-22T05:32:01.445Z,101459.19
2019-04-22T05:34:34.882Z,101444.20
2019-04-22T05:37:14.650Z,101458.73
2019-04-22T05:39:53.196Z,101458.25
2019-04-22T05:42:39.440Z,101458.62
2019-04-22T05:45:03.274Z,101457.55
2019-04-22T05:52:57.382Z,101464.39
2019-04-22T05:55:35.869Z,101469.59
2019-04-22T05:58:08.642Z,101471.37
2019-04-22T06:03:53.119Z,101476.04
2019-04-22T06:06:17.839Z,101472.98
2019-04-22T06:08:57.659Z,101469.89
2019-04-22T06:11:36.226Z,101469.30
2019-04-22T06:14:29.575Z,101465.88
2019-04-22T06:17:11.249Z,101461.61
2019-04-22T06:20:05.672Z,101466.12
2019-04-22T06:23:00.288Z,101466.07
2019-04-22T06:25:38.814Z,101466.58
2019-04-22T06:28:11.861Z,101470.87
2019-04-22T06:30:46.606Z,101463.98
2019-04-22T06:33:15.241Z,101463.50
2019-04-22T06:35:50.359Z,101462.59
2019-04-22T06:44:10.976Z,101453.36
2019-04-22T06:46:41.967Z,101467.05
2019-04-22T06:55:11.742Z,101460.42
2019-04-22T06:57:53.606Z,101450.94
2019-04-22T07:00:31.488Z,101452.41
2019-04-22T07:03:34.702Z,101439.81
2019-04-22T07:09:06.670Z,101442.34
2019-04-22T07:10:58.360Z,101445.95
2019-04-22T07:13:50.334Z,101453.58
2019-04-22T07:16:26.249Z,101453.41
2019-04-22T07:18:54.957Z,101457.20
2019-04-22T07:21:30.828Z,101445.65
2019-04-22T07:26:44.959Z,101438.91
2019-04-22T07:29:33.394Z,101441.70
2019-04-22T07:32:06.850Z,101442.68
2019-04-22T07:34:44.509Z,101445.14
2019-04-22T07:37:28.302Z,101435.34
2019-04-22T07:39:56.809Z,101439.95
2019-04-22T07:42:45.747Z,101433.34
2019-04-22T07:45:29.329Z,101434.27
2019-04-22T07:48:09.620Z,101435.38
2019-04-22T07:50:56.021Z,101429.23
2019-04-22T07:53:21.942Z,101435.31
2019-04-22T07:56:05.177Z,101431.88
2019-04-22T07:59:13.859Z,101432.75
2019-04-22T08:01:57.658Z,101426.37
2019-04-22T08:04:30.051Z,101423.59
2019-04-22T08:06:57.297Z,101422.84
2019-04-22T08:12:02.889Z,101415.47
2019-04-22T08:14:52.184Z,101413.21
2019-04-22T08:20:18.900Z,101417.16
2019-04-22T08:22:51.097Z,101406.27
2019-04-22T08:25:26.555Z,101413.50
2019-04-22T08:28:11.390Z,101410.04
2019-04-22T08:30:56.671Z,101410.41
2019-04-22T08:36:18.010Z,101405.83
2019-04-22T08:38:54.254Z,101408.36
2019-04-22T08:41:49.831Z,101406.59
2019-04-22T08:44:09.159Z,101408.23
2019-04-22T08:49:21.764Z,101413.15
2019-04-22T08:52:03.870Z,101406.64
2019-04-22T08:54:39.083Z,101402.36
2019-04-22T08:57:15.538Z,101394.78
2019-04-22T08:59:46.237Z,101398.88
2019-04-22T09:02:25.853Z,101383.94
2019-04-22T09:04:48.097Z,101394.58
2019-04-22T09:07:31.562Z,101394.34
2019-04-22T09:10:10.353Z,101386.73
2019-04-22T09:12:56.885Z,101385.89
2019-04-22T09:15:20.742Z,101386.75
2019-04-22T09:17:58.158Z,101386.19
2019-04-22T09:20:32.492Z,101385.38
2019-04-22T09:23:21.731Z,101376.11
2019-04-22T09:25:54.546Z,101379.41
2019-04-22T09:28:44.635Z,101381.59
2019-04-22T09:31:23.991Z,101377.22
2019-04-22T09:34:02.684Z,101370.41
2019-04-22T09:36:50.381Z,101371.23
2019-04-22T09:39:24.385Z,101368.77
2019-04-22T09:41:57.243Z,101358.94
2019-04-22T09:44:36.671Z,101355.16
2019-04-22T09:49:58.100Z,101358.13
2019-04-22T09:52:30.803Z,101348.01
2019-04-22T09:55:06.145Z,101348.78
2019-04-22T09:57:52.988Z,101343.86
2019-04-22T10:00:20.941Z,101347.64
2019-04-22T10:03:00.902Z,101335.89
2019-04-22T10:05:32.590Z,101332.30
2019-04-22T10:08:16.591Z,101326.52
2019-04-22T10:10:48.741Z,101324.60
2019-04-22T10:13:31.368Z,101328.86
2019-04-22T10:15:59.007Z,101333.73
2019-04-22T10:18:34.016Z,101325.27
2019-04-22T10:21:08.661Z,101327.95
2019-04-22T10:23:47.171Z,101326.06
2019-04-22T10:26:23.081Z,101313.70
2019-04-22T10:28:52.519Z,101325.05
2019-04-22T10:31:31.112Z,101312.07
2019-04-22T10:33:49.471Z,101312.05
2019-04-22T10:36:11.027Z,101304.63
2019-04-22T10:38:56.249Z,101304.36
2019-04-22T10:41:30.686Z,101299.97
2019-04-22T10:44:05.333Z,101301.60
2019-04-22T10:46:51.961Z,101292.66
2019-04-22T10:49:26.453Z,101295.49
2019-04-22T10:52:00.508Z,101291.20
2019-04-22T10:54:33.809Z,101279.25
2019-04-22T10:57:08.623Z,101267.16
2019-04-22T10:59:42.670Z,101270.56
2019-04-22T11:02:17.346Z,101266.27
2019-04-22T11:04:59.554Z,101257.41
2019-04-22T11:07:40.451Z,101252.94
2019-04-22T11:10:27.399Z,101252.34
2019-04-22T11:12:52.665Z,101254.83
2019-04-22T11:15:26.618Z,101249.66
2019-04-22T11:18:01.888Z,101246.08
2019-04-22T11:20:35.881Z,101243.61
2019-04-22T11:23:10.967Z,101239.94
2019-04-22T11:25:44.015Z,101226.99
2019-04-22T11:28:17.977Z,101237.95
2019-04-22T11:31:06.196Z,101229.16
2019-04-22T11:33:40.631Z,101227.63
2019-04-22T11:36:13.834Z,101226.42
2019-04-22T11:38:54.102Z,101220.19
2019-04-22T11:41:23.562Z,101222.98
2019-04-22T11:43:59.009Z,101213.63
2019-04-22T11:46:33.602Z,101212.84
2019-04-22T11:49:16.270Z,101214.33
2019-04-22T11:52:01.034Z,101215.33
2019-04-22T11:54:34.740Z,101209.09
2019-04-22T11:57:08.474Z,101189.70
2019-04-22T11:59:51.316Z,101196.85
2019-04-22T12:02:27.226Z,101195.97
2019-04-22T12:05:01.880Z,101191.77
2019-04-22T12:07:47.063Z,101186.53
2019-04-22T12:10:29.838Z,101185.81
2019-04-22T12:13:06.204Z,101180.44
2019-04-22T12:15:40.862Z,101177.05
2019-04-22T12:18:17.261Z,101183.22
2019-04-22T12:21:01.336Z,101170.41
2019-04-22T12:23:35.028Z,101170.77
2019-04-22T12:26:13.103Z,101174.03
2019-04-22T12:28:44.762Z,101153.05
2019-04-22T12:31:19.582Z,101150.77
2019-04-22T12:33:53.322Z,101164.72
2019-04-22T12:36:28.590Z,101153.83
2019-04-22T12:39:03.260Z,101147.20
2019-04-22T12:41:47.280Z,101151.31
2019-04-22T12:44:20.478Z,101147.69
2019-04-22T12:46:54.476Z,101131.70
2019-04-22T12:49:28.145Z,101133.07
2019-04-22T12:52:03.115Z,101139.34
2019-04-22T12:54:37.320Z,101127.32
2019-04-22T12:57:20.686Z,101130.47
2019-04-22T12:59:55.409Z,101128.61
2019-04-22T13:02:38.844Z,101121.95
2019-04-22T13:05:22.809Z,101122.85
2019-04-22T13:07:57.768Z,101112.20
2019-04-22T13:10:42.973Z,101110.78
2019-04-22T13:13:07.144Z,101109.41
2019-04-22T13:15:41.285Z,101104.66
2019-04-22T13:18:24.782Z,101108.27
2019-04-22T13:20:50.612Z,101108.53
2019-04-22T13:23:23.674Z,101101.22
2019-04-22T13:26:12.768Z,101095.67
2019-04-22T13:28:47.294Z,101092.83
2019-04-22T13:31:30.854Z,101096.17
2019-04-22T13:34:15.815Z,101090.20
2019-04-22T13:36:43.600Z,101084.01
2019-04-22T13:39:17.066Z,101082.62
2019-04-22T13:41:57.654Z,101081.23
2019-04-22T13:44:25.296Z,101075.62
2019-04-22T13:47:17.053Z,101070.73
2019-04-22T13:50:32.921Z,101072.52
2019-04-22T13:53:10.595Z,101067.92
2019-04-22T13:55:41.205Z,101066.87
2019-04-22T13:58:01.038Z,101068.42
2019-04-22T14:00:22.587Z,101070.73
2019-04-22T14:03:13.908Z,101064.52
2019-04-22T14:05:48.817Z,101063.18
2019-04-22T14:08:23.064Z,101064.77
2019-04-22T14:11:20.699Z,101065.09
2019-04-22T14:13:41.885Z,101057.02
2019-04-22T14:16:15.557Z,101050.24
2019-04-22T14:18:49.774Z,101046.92
2019-04-22T14:21:23.189Z,101044.88
2019-04-22T14:23:58.537Z,101052.09
2019-04-22T14:26:45.233Z,101054.69
2019-04-22T14:29:08.151Z,101049.33
2019-04-22T14:31:42.477Z,101055.61
2019-04-22T14:34:16.907Z,101045.53
2019-04-22T14:36:51.194Z,101038.27
2019-04-22T14:39:26.189Z,101040.11
2019-04-22T14:42:18.960Z,101028.02
2019-04-22T14:47:36.119Z,101033.71
2019-04-22T14:50:10.239Z,101029.01
2019-04-22T14:52:47.476Z,101024.69
2019-04-22T14:55:13.803Z,101026.06
2019-04-22T14:57:50.876Z,101020.39
2019-04-22T15:00:26.333Z,101010.58
2019-04-22T15:02:59.855Z,101010.81
2019-04-22T15:05:34.374Z,101006.34
2019-04-22T15:08:19.201Z,101005.52
2019-04-22T15:10:54.041Z,101006.27
2019-04-22T15:13:43.419Z,100994.27
2019-04-22T15:16:44.945Z,101007.63
2019-04-22T15:19:29.767Z,101000.95
2019-04-22T15:22:20.958Z,100990.42
2019-04-22T15:24:56.750Z,100994.95
2019-04-22T15:27:31.194Z,100998.20
2019-04-22T15:30:15.088Z,100994.81
2019-04-22T15:32:49.333Z,100994.70
2019-04-22T15:35:25.143Z,100988.17
2019-04-22T15:38:01.398Z,100983.58
2019-04-22T15:40:36.448Z,101000.02
2019-04-22T15:43:29.749Z,100999.16
2019-04-22T15:46:11.744Z,100991.95
2019-04-22T15:48:46.290Z,100984.55
2019-04-22T15:51:32.468Z,100986.42
2019-04-22T15:54:17.218Z,100984.37
2019-04-22T15:56:52.437Z,100994.44
2019-04-22T15:59:54.091Z,100994.66
2019-04-22T16:02:12.079Z,100987.81
2019-04-22T16:04:56.721Z,100981.36
2019-04-22T16:07:40.068Z,100981.71
2019-04-22T16:10:15.447Z,100976.91
2019-04-22T16:12:57.504Z,100978.51
2019-04-22T16:15:26.595Z,100972.31
2019-04-22T16:18:03.308Z,100979.20
2019-04-22T16:20:58.658Z,100976.99
2019-04-22T16:23:56.508Z,100973.73
2019-04-22T16:26:58.346Z,100981.70
2019-04-22T16:29:49.708Z,100980.82
2019-04-22T16:32:25.298Z,100976.31
2019-04-22T16:35:08.803Z,100975.09
2019-04-22T16:37:42.934Z,100987.25
2019-04-22T16:40:16.778Z,100980.89
2019-04-22T16:42:56.949Z,100977.80
2019-04-22T16:45:25.673Z,100971.61
2019-04-22T16:48:00.000Z,100968.17
2019-04-22T16:50:35.633Z,100968.03
2019-04-22T16:53:10.207Z,100964.53
2019-04-22T16:56:06.849Z,100963.77
2019-04-22T16:58:41.012Z,100963.08
2019-04-22T17:01:52.758Z,100965.13
2019-04-22T17:05:15.775Z,100964.64
2019-04-22T17:07:50.012Z,100953.75
2019-04-22T17:10:23.764Z,100962.27
2019-04-22T17:13:03.736Z,100962.39
2019-04-22T17:15:45.121Z,100957.62
2019-04-22T17:18:19.401Z,100962.48
2019-04-22T17:20:54.886Z,100963.07
2019-04-22T17:23:29.671Z,100956.94
2019-04-22T17:26:04.435Z,100965.17
2019-04-22T17:28:41.435Z,100955.48
2019-04-22T17:31:16.454Z,100965.68
2019-04-22T17:33:50.822Z,100967.66
2019-04-22T17:36:24.378Z,100961.73
2019-04-22T17:39:15.824Z,100963.97
2019-04-22T17:41:50.561Z,100961.28
2019-04-22T17:44:41.373Z,100961.32
2019-04-22T17:47:28.836Z,100960.59
2019-04-22T17:50:21.465Z,100957.11
2019-04-22T17:53:00.861Z,100965.04
2019-04-22T17:55:49.255Z,100965.66
2019-04-22T17:58:34.767Z,100965.16
2019-04-22T18:01:09.322Z,100969.56
2019-04-22T18:03:29.062Z,100970.14
2019-04-22T18:06:00.364Z,100969.91
2019-04-22T18:08:50.182Z,100978.66
2019-04-22T18:11:33.442Z,100980.25
2019-04-22T18:14:11.695Z,100984.09
2019-04-22T18:16:40.397Z,100990.36
2019-04-22T18:19:16.658Z,100993.10
2019-04-22T18:21:46.432Z,100990.94
2019-04-22T18:24:07.735Z,100993.13
2019-04-22T18:27:07.354Z,100987.70
2019-04-22T18:29:48.471Z,100986.91
2019-04-22T18:32:13.581Z,100994.80
2019-04-22T18:34:55.493Z,100986.92
2019-04-22T18:37:40.981Z,100997.80
2019-04-22T18:40:15.122Z,100995.64
2019-04-22T18:42:53.908Z,101008.95
2019-04-22T18:45:37.341Z,101004.06
2019-04-22T18:47:48.888Z,101011.41
2019-04-22T18:50:45.202Z,101010.53
2019-04-22T18:53:38.663Z,101013.52
2019-04-22T18:56:15.279Z,101007.52
2019-04-22T18:58:53.706Z,101007.78
2019-04-22T19:01:19.723Z,101005.59
2019-04-22T19:04:01.350Z,101010.21
2019-04-22T19:06:52.265Z,101008.84
2019-04-22T19:09:29.562Z,101010.99
2019-04-22T19:14:51.162Z,101001.98
2019-04-22T19:17:52.486Z,101013.68
2019-04-22T19:20:16.966Z,101011.77
2019-04-22T19:22:58.923Z,101011.50
2019-04-22T19:25:26.177Z,101017.98
2019-04-22T19:28:27.817Z,101020.44
2019-04-22T19:31:09.407Z,101022.03
2019-04-22T19:33:53.866Z,101023.05
2019-04-22T19:36:20.990Z,101022.26
2019-04-22T19:38:52.504Z,101015.69
2019-04-22T19:41:37.433Z,101008.91
2019-04-22T19:44:17.742Z,101010.81
2019-04-22T19:47:06.352Z,101020.31
2019-04-22T19:49:47.743Z,101017.05
2019-04-22T19:52:21.032Z,101036.25
2019-04-22T19:54:46.726Z,101036.25
2019-04-22T19:57:18.629Z,101039.50
2019-04-22T20:00:00.019Z,101037.59
2019-04-22T20:02:51.415Z,101026.17
2019-04-22T20:05:46.697Z,101038.88
2019-04-22T20:08:31.125Z,101037.78
2019-04-22T20:11:19.002Z,101033.71
2019-04-22T20:14:03.271Z,101042.08
2019-04-22T20:16:27.499Z,101043.11
2019-04-22T20:19:12.293Z,101034.91
2019-04-22T20:21:50.006Z,101044.33
2019-04-22T20:24:16.898Z,101043.72
2019-04-22T20:27:10.580Z,101046.40
2019-04-22T20:29:41.740Z,101054.17
2019-04-22T20:32:27.869Z,101044.16
2019-04-22T20:35:15.190Z,101046.89
2019-04-22T20:37:58.281Z,101049.83
2019-04-22T20:40:38.835Z,101048.39
2019-04-22T20:43:29.259Z,101048.11
2019-04-22T20:46:05.766Z,101057.55
2019-04-22T20:48:44.107Z,101042.48
2019-04-22T20:51:17.244Z,101052.83
2019-04-22T20:53:47.918Z,101056.06
2019-04-22T20:56:48.227Z,101047.68
2019-04-22T20:59:31.470Z,101046.53
2019-04-22T21:02:07.653Z,101044.03
2019-04-22T21:04:50.353Z,101041.01
2019-04-22T21:07:31.390Z,101051.47
2019-04-22T21:10:09.115Z,101045.47
2019-04-22T21:12:38.660Z,101038.39
2019-04-22T21:15:35.388Z,101048.06
2019-04-22T21:18:01.171Z,101042.36
2019-04-22T21:20:49.565Z,101037.45
2019-04-22T21:38:15.238Z,101013.34
2019-04-22T21:40:48.875Z,101016.47
2019-04-22T21:43:25.581Z,101014.27
2019-04-22T21:46:11.952Z,101012.59
2019-04-22T21:49:25.154Z,101009.50
2019-04-22T21:51:58.406Z,101008.11
2019-04-22T21:54:48.959Z,101008.41
2019-04-22T21:57:46.138Z,100999.13
2019-04-22T22:00:24.991Z,101002.34
2019-04-22T22:02:54.528Z,101001.91
2019-04-22T22:05:21.765Z,101006.22
2019-04-22T22:07:53.409Z,101001.33
2019-04-22T22:10:40.294Z,100995.88
2019-04-22T22:23:54.587Z,100983.31
2019-04-22T22:26:19.242Z,100980.42
2019-04-22T22:29:05.213Z,100972.36
2019-04-22T22:31:43.200Z,100976.91
2019-04-22T22:34:13.656Z,100977.17
2019-04-22T22:36:36.335Z,100966.53
2019-04-22T22:39:23.697Z,100965.77
2019-04-22T22:42:01.942Z,100956.75
2019-04-22T22:44:44.206Z,100962.56
2019-04-22T22:47:30.476Z,100953.86
2019-04-22T22:50:09.050Z,100950.09
2019-04-22T22:55:37.576Z,100947.95
2019-04-22T22:58:11.400Z,100944.95
2019-04-22T23:00:44.061Z,100940.64
2019-04-22T23:06:02.936Z,100940.66
2019-04-22T23:08:38.302Z,100926.78
2019-04-22T23:11:11.758Z,100927.80
2019-04-22T23:13:49.272Z,100923.78
2019-04-22T23:16:15.329Z,100921.30
2019-04-22T23:18:59.718Z,100924.50
2019-04-22T23:21:39.760Z,100918.09
2019-04-22T23:24:50.117Z,100921.42
2019-04-22T23:27:42.091Z,100914.00
2019-04-22T23:30:47.562Z,100911.30
2019-04-22T23:33:57.365Z,100898.59
2019-04-22T23:36:37.004Z,100904.64
2019-04-22T23:39:27.419Z,100904.59
2019-04-22T23:42:14.586Z,100897.97
2019-04-22T23:44:56.634Z,100898.98
2019-04-22T23:47:35.599Z,100894.72
2019-04-22T23:50:30.851Z,100891.14
2019-04-22T23:53:04.764Z,100885.41
2019-04-22T23:55:44.766Z,100887.52
2019-04-22T23:58:21.098Z,100890.42
